Flight Track Log - Related Links

Times and Time Zones

All times are in EDT time to prevent confusion due to time zone crossing. See the OPT429 flight status page for this flight to view local times or setup timezone preferences in your user account.


Time Position Orientation Groundspeed Altitude Reporting Facility
EDT Latitude Longitude Course Direction KTS MPH feet Rate Location/Type
Sun 04:55:51 PM 40.7500 -74.4167 49° Northeast 197 227 2,600  Level New York TRACON
Sun 04:56:51 PM 40.7833 -74.3667 49° Northeast 246 283 5,000 1,740 Climbing New York TRACON
Sun 04:57:31 PM 40.8253 -74.3800 346° North 296 341 5,500 2,848 Climbing New York Center
Sun 04:58:30 PM 40.9019 -74.3922 353° North 260 299 9,700 3,174 Climbing New York Center
Sun 04:59:32 PM 40.9642 -74.4011 354° North 278 320 11,900 1,100 Climbing New York Center
Sun 05:00:30 PM 41.0522 -74.3783 11° North 290 334 11,900 353 Level New York Center
Sun 05:01:31 PM 41.1150 -74.3044 42° Northeast 306 352 12,600 1,918 Climbing New York Center
Sun 05:02:32 PM 41.1981 -74.2400 30° Northeast 329 379 15,800 1,664 Climbing New York Center
Sun 05:03:30 PM 41.2783 -74.2717 343° North 313 360 15,900 814 Climbing New York Center
Sun 05:04:30 PM 41.3744 -74.3375 333° Northwest 331 381 17,400 1,721 Climbing New York Center
Sun 05:05:32 PM 41.4325 -74.4125 316° Northwest 342 394 19,400 2,678 Climbing New York Center
Sun 05:06:31 PM 41.4733 -74.5061 300° West 313 360 22,800 2,949 Climbing New York Center
Sun 05:07:30 PM 41.5136 -74.6081 298° West 300 345 25,200 1,950 Climbing New York Center
Sun 05:08:31 PM 41.5564 -74.7047 301° West 307 353 26,700 1,475 Climbing New York Center
Sun 05:09:32 PM 41.6028 -74.8100 301° West 319 367 28,200 1,488 Climbing New York Center
Sun 05:10:32 PM 41.6508 -74.9214 300° West 337 388 29,700 1,525 Climbing New York Center
Sun 05:11:30 PM 41.6989 -75.0381 299° West 349 402 31,200 1,525 Climbing New York Center
Sun 05:12:30 PM 41.7486 -75.1553 300° West 359 413 32,700 1,426 Climbing New York Center
Sun 05:13:32 PM 41.8006 -75.2728 301° West 365 420 34,100 1,173 Climbing New York Center
Sun 05:15:29 PM 41.8833 -75.5000 296° West 390 449 36,200 1,000 Climbing Toronto Center
Sun 05:16:32 PM 41.9583 -75.6517 304° West 385 443 37,100 942 Climbing New York Center
Sun 05:17:30 PM 42.0114 -75.7811 299° West 385 443 38,100 1,000 Climbing New York Center
Sun 05:18:32 PM 42.0642 -75.9108 299° West 390 449 39,100 890 Climbing New York Center
Sun 05:20:59 PM 42.1836 -76.2208 298° West 386 444 41,200 833 Climbing Cleveland Center
Sun 05:22:01 PM 42.2256 -76.3517 293° West 384 442 42,000 629 Climbing Cleveland Center
Sun 05:23:03 PM 42.2661 -76.4750 294° West 382 440 42,500 484 Climbing Cleveland Center
Sun 05:24:05 PM 42.3153 -76.6314 293° West 381 438 43,000 242 Climbing Cleveland Center
Sun 05:25:07 PM 42.3564 -76.7619 293° West 381 438 43,000  Level Cleveland Center
Sun 05:26:10 PM 42.3997 -76.8981 293° West 388 447 43,000  Level Cleveland Center
Sun 05:27:12 PM 42.4422 -77.0361 293° West 394 453 43,000  Level Cleveland Center
Sun 05:28:14 PM 42.4864 -77.1769 293° West 402 463 43,000  Level Cleveland Center
Sun 05:29:16 PM 42.5297 -77.3183 293° West 406 467 43,000  Level Cleveland Center
Sun 05:30:18 PM 42.5761 -77.4706 293° West 408 470 43,000  Level Cleveland Center
Sun 05:31:20 PM 42.6300 -77.6475 293° West 417 480 43,000  Level Cleveland Center
Sun 05:33:24 PM 42.7225 -77.9494 293° West 427 491 43,000  Level Cleveland Center
Sun 05:34:26 PM 42.7675 -78.0975 293° West 424 488 43,000  Level Cleveland Center
Sun 05:35:29 PM 42.8103 -78.2458 292° West 424 488 43,000  Level Cleveland Center
Sun 05:37:33 PM 42.8992 -78.5439 292° West 425 489 43,000  Level Cleveland Center
Sun 05:38:35 PM 42.9522 -78.7239 292° West 428 493 43,000  Level Cleveland Center
Sun 05:39:37 PM 42.9994 -78.8731 293° West 429 494 43,000  Level Cleveland Center
Sun 05:40:39 PM 43.0467 -79.0225 293° West 428 493 43,000  Level Cleveland Center
Sun 05:41:29 PM 43.0833 -79.1333 294° West 420 483 43,000  Level Toronto Center
Sun 05:42:29 PM 43.1333 -79.2833 295° West 420 483 43,000  Level Toronto Center
Sun 05:43:29 PM 43.1667 -79.4333 287° West 420 483 43,000  Level Toronto Center
Sun 05:44:29 PM 43.2167 -79.5667 297° West 420 483 43,000  Level Toronto Center
Sun 05:45:29 PM 43.2500 -79.7167 287° West 420 483 43,000  Level Toronto Center
Sun 05:47:29 PM 43.3500 -80.0000 293° West 410 472 43,000  Level Toronto Center
Sun 05:49:29 PM 43.4333 -80.3000 291° West 410 472 43,000  Level Toronto Center
Sun 05:50:29 PM 43.4833 -80.4667 293° West 410 472 43,000  Level Toronto Center
Sun 05:51:29 PM 43.5333 -80.5833 301° West 410 472 43,000  Level Toronto Center
Sun 05:52:29 PM 43.5833 -80.7333 295° West 400 460 43,000  Level Toronto Center
Sun 05:53:29 PM 43.6167 -80.8500 292° West 400 460 43,000  Level Toronto Center
Sun 05:54:29 PM 43.6667 -81.0167 293° West 400 460 43,000  Level Toronto Center
Sun 05:55:29 PM 43.7000 -81.1333 292° West 400 460 43,000  Level Toronto Center
Sun 05:56:29 PM 43.7500 -81.2667 297° West 390 449 43,000  Level Toronto Center
Sun 05:57:29 PM 43.8000 -81.4167 295° West 390 449 43,000  Level Toronto Center
Sun 05:58:29 PM 43.8500 -81.5500 298° West 390 449 43,000  Level Toronto Center
Sun 06:00:09 PM 43.9306 -81.7756 296° West 392 451 43,000  Level Minneapolis Center
Sun 06:01:11 PM 43.9764 -81.9122 295° West 392 451 43,000  Level Minneapolis Center
Sun 06:02:13 PM 44.0319 -82.0753 295° West 392 451 43,000  Level Minneapolis Center
Sun 06:03:29 PM 44.0667 -82.2333 287° West 390 449 43,000 -88 Level Toronto Center
Sun 06:04:29 PM 44.1167 -82.3667 298° West 390 449 42,800 -491 Descending Toronto Center
Sun 06:05:19 PM 44.1828 -82.4714 311° West 390 449 42,100 -1,274 Descending Minneapolis Center
Sun 06:06:22 PM 44.2583 -82.5875 312° West 397 457 40,400 -1,680 Descending Minneapolis Center
Sun 06:07:24 PM 44.3286 -82.7019 311° West 397 457 38,600 -1,935 Descending Minneapolis Center
Sun 06:08:26 PM 44.4111 -82.8353 311° West 387 445 36,400 -1,484 Descending Minneapolis Center
Sun 06:10:30 PM 44.5464 -83.0597 310° West 378 435 34,000 -581 Descending Minneapolis Center
Sun 06:12:34 PM 44.6808 -83.2847 310° West 379 436 34,000 -266 Level Minneapolis Center
Sun 06:14:38 PM 44.8350 -83.5458 310° West 398 458 32,900 -1,000 Descending Minneapolis Center
Sun 06:15:40 PM 44.9058 -83.6647 310° West 399 459 30,900 -2,032 Descending Minneapolis Center
Sun 06:16:42 PM 44.9722 -83.7775 310° West 386 444 28,700 -3,387 Descending Minneapolis Center
Sun 06:17:44 PM 45.0361 -83.8892 309° West 375 432 23,900 -5,032 Descending Minneapolis Center
Sun 06:18:46 PM 45.1122 -84.0214 309° West 373 429 18,300 -4,982 Descending Minneapolis Center
Sun 06:20:29 PM 45.2000 -84.1833 313° West 340 391 10,200 -4,086 Descending Toronto Center
Sun 06:21:29 PM 45.2500 -84.2833 305° West 290 334 7,200 -2,950 Descending Toronto Center
Sun 06:22:29 PM 45.2833 -84.3500 305° West 250 288 4,300 -1,714 Descending Toronto Center
Sun 06:23:56 PM 45.3678 -84.4678 316° Northwest 249 287 3,000 -398 Descending Minneapolis Center
Sun 06:26:00 PM 45.4511 -84.6161 325° Northwest 237 273 2,900 -120 Descending Minneapolis Center
Sun 06:28:05 PM 45.5256 -84.7453 311° West 220 253 2,500 -192 Descending Minneapolis Center
Sun 06:30:00 PM 45.5667 -84.7833 325° Northwest  Level FlightAware Approximate

Login

Don't have an account? Register now (free) for customized features, flight alerts, and more!